Главная страница
METAR-TAF:

METAR-TAF

Аэропорты :

Вадсё, Норвегия

широта: 70-04N, долгота: 029-51E, высота над уровнем моря: 3 м

Текущие метеонаблюдения

Эта сводка был подготовлена 26 минут назад, в 02:20 UTC
Ветер 15 Узел от северо-восточный
Температура 7°C
Влажность 100%
Давление 995 hPa
Видимость 10 км и более
Рассеянная облачность на высоте 600 фута
небольшой дождь

METAR: ENVD 210220Z 05015KT 9999 -RA BKN006 07/07 Q0995

Время: 04:46 (02:46 UTC)

Прогноз

Эта сводка был подготовлена 9 часа и 46 минут назад, в 17:00 UTC
Прогноз действительный с 20-го 18 UTC до 20-го 23 UTC
Ветер 12 Узел от восточный
Видимость 10 км и более
небольшая облачность на высоте 500 фута
Рассеянная облачность на высоте 1500 фута
Вероятность 40%
С 20-го 18 UTC до 20-го 23 UTC
Видимость: 4000 м
Рассеянная облачность на высоте 400 фута
дымка

TAF: ENVD 201700Z 2018/2023 08012KT 9999 FEW005 BKN015 PROB40 2018/2023 4000 BR BKN004

Метеонаблюдения и прогнозы для более 4000 аэропортов (сводки METAR и TAF).

Имеющиеся станции представлены на карте желтыми и красными точками.

Чтобы увидеть название станции, наведите на нее мышь.

Затем щелкните, чтобы увидеть метеонаблюдения и метеопрогнозы.

Управление картой: чтобы увеличить масштаб, щелкните зеленые кнопки с черным крестиком; чтобы уменьшить масштаб, щелкните зеленую кнопку с тире; для просмотра соседних карт щелкайте зеленые стрелки.


METAR-TAF: